Time;durP1;ratioP1;P1;durP2;ratioP2;P2;SDS_P1;SDS_P2;PMS_P1;PMS_P2;Temp;Humidity;BMP_temperature;BMP_pressure;BME280_temperature;BME280_humidity;BME280_pressure;Samples;Min_cycle;Max_cycle;Signal;HPM_P1;HPM_P2
2023/06/20 04:01:07;;;;;;;5.90;5.60;;;18.60;99.90;;;;;;5640770;23;20526;-73
2023/06/20 04:03:34;;;;;;;5.43;5.03;;;18.60;99.90;;;;;;4986016;28;20467;-72
2023/06/20 04:06:01;;;;;;;7.17;5.30;;;18.70;99.90;;;;;;4988879;28;20469;-72
2023/06/20 04:08:29;;;;;;;6.63;5.30;;;18.60;99.90;;;;;;4983658;28;20497;-72
2023/06/20 04:10:55;;;;;;;6.03;5.43;;;18.70;99.90;;;;;;4983356;28;21053;-73
2023/06/20 04:13:22;;;;;;;6.30;4.50;;;18.70;99.90;;;;;;4988377;28;20486;-73
2023/06/20 04:15:49;;;;;;;7.00;6.30;;;18.70;99.90;;;;;;4983663;28;21048;-72
2023/06/20 04:18:17;;;;;;;5.30;4.90;;;18.80;99.90;;;;;;4987518;28;20494;-73
2023/06/20 04:20:44;;;;;;;7.30;6.67;;;18.80;99.90;;;;;;4988254;28;20499;-72
2023/06/20 04:23:10;;;;;;;6.60;5.90;;;18.90;99.90;;;;;;4990050;28;20463;-72
2023/06/20 04:25:37;;;;;;;7.23;6.60;;;19.30;99.90;;;;;;4989550;28;21005;-73
2023/06/20 04:28:04;;;;;;;6.10;5.60;;;19.70;99.90;;;;;;4991016;28;20459;-72
2023/06/20 04:30:31;;;;;;;5.23;4.83;;;20.20;99.90;;;;;;4986297;28;20495;-72
2023/06/20 04:32:58;;;;;;;3.97;3.67;;;20.70;99.90;;;;;;4989156;28;20467;-72
2023/06/20 04:35:26;;;;;;;5.40;5.00;;;21.30;99.90;;;;;;4991043;28;20462;-72
2023/06/20 04:37:53;;;;;;;4.87;4.50;;;21.70;99.90;;;;;;4977722;28;20467;-72
2023/06/20 04:40:20;;;;;;;3.57;3.37;;;22.00;99.90;;;;;;4984772;28;20473;-72
2023/06/20 04:42:47;;;;;;;5.40;4.73;;;22.30;99.90;;;;;;4997324;28;20458;-71
2023/06/20 04:45:14;;;;;;;5.57;5.20;;;22.60;99.90;;;;;;4995238;28;20494;-72
2023/06/20 04:47:42;;;;;;;4.63;4.43;;;22.70;99.90;;;;;;4996796;28;20859;-72
2023/06/20 04:50:09;;;;;;;5.20;4.80;;;22.80;99.90;;;;;;4995535;28;20500;-72
2023/06/20 04:52:37;;;;;;;4.07;3.87;;;22.80;99.90;;;;;;4992804;28;20485;-72
2023/06/20 04:55:04;;;;;;;4.00;3.80;;;22.80;99.90;;;;;;4996257;28;20512;-72
2023/06/20 04:57:32;;;;;;;4.50;4.20;;;22.70;99.90;;;;;;4994087;28;20947;-72
2023/06/20 04:59:59;;;;;;;5.43;5.03;;;22.80;99.90;;;;;;4994094;28;20565;-72
2023/06/20 05:02:27;;;;;;;3.93;3.60;;;22.90;99.90;;;;;;4994551;28;20540;-72
2023/06/20 05:04:53;;;;;;;4.80;4.50;;;22.60;99.90;;;;;;4994585;28;20521;-72
2023/06/20 05:07:21;;;;;;;4.33;4.03;;;22.10;99.90;;;;;;4993347;28;20470;-72
2023/06/20 05:09:50;;;;;;;5.10;4.90;;;21.90;99.90;;;;;;4995025;28;20475;-72
2023/06/20 05:12:17;;;;;;;5.33;4.33;;;21.60;99.90;;;;;;4996466;28;20520;-72
2023/06/20 05:14:43;;;;;;;7.23;5.67;;;21.40;99.90;;;;;;4994490;28;20467;-72
2023/06/20 05:17:10;;;;;;;5.13;4.70;;;21.60;99.90;;;;;;4995356;28;20479;-72
2023/06/20 05:19:37;;;;;;;4.43;4.20;;;22.10;99.90;;;;;;4996695;28;20476;-72
2023/06/20 05:22:04;;;;;;;4.17;3.93;;;22.80;99.90;;;;;;4995056;28;20492;-72
2023/06/20 05:24:30;;;;;;;4.80;4.50;;;23.60;99.90;;;;;;4994074;28;20617;-72
2023/06/20 05:26:59;;;;;;;4.50;4.20;;;24.00;99.90;;;;;;4994909;28;20470;-72
2023/06/20 05:29:25;;;;;;;4.93;4.23;;;24.50;99.90;;;;;;4989960;28;20462;-72
2023/06/20 05:31:52;;;;;;;3.70;3.60;;;24.80;99.90;;;;;;4993951;28;20983;-72
2023/06/20 05:34:19;;;;;;;3.40;3.30;;;24.50;99.90;;;;;;4995440;28;20837;-72
2023/06/20 05:36:46;;;;;;;3.23;3.03;;;25.00;99.90;;;;;;4988715;28;20475;-72
2023/06/20 05:39:13;;;;;;;4.43;3.83;;;25.10;99.90;;;;;;4994317;28;20475;-72
2023/06/20 05:41:41;;;;;;;3.53;3.43;;;25.20;99.90;;;;;;4993737;28;20488;-72
2023/06/20 05:44:10;;;;;;;3.50;3.40;;;25.40;99.90;;;;;;4993760;28;20471;-72
2023/06/20 05:46:36;;;;;;;4.67;4.37;;;25.60;99.90;;;;;;4990427;28;20477;-72
2023/06/20 05:49:03;;;;;;;2.63;2.53;;;25.60;99.90;;;;;;4984021;28;20880;-73
2023/06/20 05:51:30;;;;;;;3.77;3.20;;;25.50;99.90;;;;;;4990673;28;21066;-73
2023/06/20 05:53:58;;;;;;;4.13;3.93;;;25.50;99.90;;;;;;4993410;28;20460;-73
2023/06/20 05:56:25;;;;;;;3.40;3.30;;;25.40;99.90;;;;;;4992244;28;20503;-73
2023/06/20 05:58:51;;;;;;;4.73;3.20;;;25.20;99.90;;;;;;4984429;28;20477;-72
2023/06/20 06:01:19;;;;;;;3.33;3.13;;;24.90;99.90;;;;;;4986301;28;20501;-72
2023/06/20 06:03:47;;;;;;;3.90;3.70;;;25.00;99.90;;;;;;4993227;28;20473;-72
2023/06/20 06:06:14;;;;;;;3.20;3.00;;;24.80;99.90;;;;;;4989651;28;20557;-72
2023/06/20 06:08:41;;;;;;;3.17;3.03;;;24.60;99.90;;;;;;4993342;28;20467;-72
2023/06/20 06:11:08;;;;;;;3.57;3.37;;;24.60;99.90;;;;;;4993374;28;20880;-74
2023/06/20 06:13:35;;;;;;;3.90;3.70;;;24.80;99.90;;;;;;4993277;28;20468;-72
2023/06/20 06:16:01;;;;;;;2.97;2.83;;;24.70;99.90;;;;;;4989748;28;20568;-72
2023/06/20 06:18:30;;;;;;;3.50;3.30;;;24.60;99.90;;;;;;4992951;28;20474;-72
2023/06/20 06:20:57;;;;;;;3.60;3.50;;;24.70;99.90;;;;;;4990504;28;20518;-72
2023/06/20 06:23:24;;;;;;;2.90;2.80;;;25.10;99.90;;;;;;4990949;28;20468;-72
2023/06/20 06:25:52;;;;;;;2.00;2.00;;;25.70;99.90;;;;;;4991747;28;20950;-72
2023/06/20 06:28:18;;;;;;;2.97;2.80;;;26.40;99.90;;;;;;4986235;28;20467;-72
2023/06/20 06:30:45;;;;;;;2.77;2.67;;;27.30;99.90;;;;;;4990987;28;20497;-72
2023/06/20 06:33:12;;;;;;;2.93;2.73;;;27.60;99.90;;;;;;4990382;28;20498;-70
2023/06/20 06:35:41;;;;;;;2.37;2.27;;;27.80;99.90;;;;;;4992179;28;20946;-71
2023/06/20 06:38:08;;;;;;;2.37;2.37;;;27.20;99.90;;;;;;4991769;28;20471;-70
2023/06/20 06:40:34;;;;;;;3.40;3.20;;;27.00;99.90;;;;;;4990953;28;20490;-70
2023/06/20 06:43:01;;;;;;;3.53;3.37;;;26.70;99.90;;;;;;4990324;28;20811;-71
2023/06/20 06:45:28;;;;;;;3.17;2.97;;;26.60;99.90;;;;;;4989376;28;20582;-71
2023/06/20 06:47:55;;;;;;;3.10;3.00;;;26.60;99.90;;;;;;4988795;28;20470;-71
2023/06/20 06:50:21;;;;;;;2.90;2.80;;;26.80;99.90;;;;;;4991584;28;20478;-69
2023/06/20 06:52:49;;;;;;;3.27;3.10;;;26.90;99.90;;;;;;4989954;28;20471;-71
2023/06/20 06:55:16;;;;;;;2.80;2.60;;;27.00;99.90;;;;;;4991470;28;20469;-73
2023/06/20 06:57:43;;;;;;;2.87;2.77;;;27.50;99.90;;;;;;4988233;28;20463;-66
2023/06/20 07:00:14;;;;;;;3.30;3.10;;;27.70;99.90;;;;;;4991097;28;20470;-67
2023/06/20 07:02:41;;;;;;;2.53;2.53;;;27.40;99.90;;;;;;4987119;28;20880;-68
2023/06/20 07:05:08;;;;;;;2.73;2.73;;;27.20;99.90;;;;;;4990402;28;20487;-67
2023/06/20 07:07:34;;;;;;;3.00;2.90;;;27.50;99.90;;;;;;4988274;28;20487;-66
2023/06/20 07:10:02;;;;;;;3.73;3.53;;;27.40;99.90;;;;;;4992539;28;20467;-68
2023/06/20 07:12:29;;;;;;;2.60;2.50;;;27.90;99.90;;;;;;4979723;28;20681;-71
2023/06/20 07:14:56;;;;;;;2.50;2.50;;;28.20;99.90;;;;;;4986729;28;20474;-65
2023/06/20 07:17:23;;;;;;;2.10;2.10;;;28.40;99.90;;;;;;4988825;28;20498;-68
2023/06/20 07:19:50;;;;;;;2.73;2.63;;;28.80;99.90;;;;;;4986926;28;20573;-67
2023/06/20 07:22:16;;;;;;;2.37;2.30;;;28.80;99.90;;;;;;4989168;28;20486;-67
2023/06/20 07:24:43;;;;;;;2.33;2.33;;;28.40;99.90;;;;;;4990599;28;20477;-69
2023/06/20 07:27:12;;;;;;;3.50;3.20;;;28.10;99.90;;;;;;4990119;28;20470;-67
2023/06/20 07:29:39;;;;;;;4.47;4.10;;;27.80;99.90;;;;;;4986662;28;20471;-68
2023/06/20 07:32:06;;;;;;;3.00;2.80;;;27.90;99.90;;;;;;4989686;28;20522;-67
2023/06/20 07:34:33;;;;;;;2.93;2.77;;;27.80;99.90;;;;;;4991323;28;21142;-66
2023/06/20 07:37:00;;;;;;;2.77;2.67;;;27.50;99.90;;;;;;4991308;28;20553;-67
2023/06/20 07:39:27;;;;;;;3.03;2.83;;;27.40;99.90;;;;;;4987696;28;20959;-66
2023/06/20 07:41:53;;;;;;;2.90;2.80;;;27.30;99.90;;;;;;4987927;28;20493;-67
2023/06/20 07:44:21;;;;;;;3.20;3.10;;;27.30;99.90;;;;;;4991137;28;20473;-66
2023/06/20 07:46:48;;;;;;;3.87;3.57;;;27.00;99.90;;;;;;4985330;28;20505;-72
2023/06/20 07:49:15;;;;;;;4.50;4.13;;;27.10;99.90;;;;;;4990059;28;21059;-72
2023/06/20 07:51:42;;;;;;;2.73;2.73;;;27.30;99.90;;;;;;4981498;28;20498;-72
2023/06/20 07:54:09;;;;;;;2.87;2.77;;;27.50;99.90;;;;;;4988159;28;20470;-67
2023/06/20 07:56:36;;;;;;;3.70;3.50;;;27.60;99.90;;;;;;4989425;28;20542;-66
2023/06/20 07:59:04;;;;;;;3.47;3.27;;;27.70;99.90;;;;;;4989211;28;20469;-68
2023/06/20 08:01:32;;;;;;;3.20;3.10;;;28.10;99.90;;;;;;4987260;28;20617;-67
2023/06/20 08:03:58;;;;;;;3.03;2.93;;;28.00;99.90;;;;;;4990095;28;21002;-67
2023/06/20 08:06:25;;;;;;;3.27;3.07;;;28.20;99.90;;;;;;4988871;28;20490;-66
2023/06/20 08:08:52;;;;;;;3.80;3.60;;;28.20;99.90;;;;;;4993040;28;20474;-66
2023/06/20 08:11:21;;;;;;;3.10;3.00;;;28.10;99.90;;;;;;4996032;28;20488;-70
2023/06/20 08:13:47;;;;;;;3.13;3.03;;;27.70;99.90;;;;;;4993930;28;20499;-71
2023/06/20 08:16:14;;;;;;;3.40;3.30;;;27.50;99.90;;;;;;4992999;28;20504;-71
2023/06/20 08:18:42;;;;;;;3.00;2.90;;;27.50;99.90;;;;;;4996963;28;20474;-71
2023/06/20 08:21:09;;;;;;;3.97;3.67;;;27.50;99.90;;;;;;4991591;28;20516;-67
2023/06/20 08:23:36;;;;;;;2.70;2.60;;;27.50;99.90;;;;;;4989568;28;20476;-66
2023/06/20 08:26:03;;;;;;;2.70;2.60;;;27.90;99.90;;;;;;4989743;28;20505;-67
2023/06/20 08:28:29;;;;;;;3.03;2.83;;;28.50;99.90;;;;;;4980601;28;20475;-66
2023/06/20 08:30:56;;;;;;;2.50;2.40;;;28.70;99.90;;;;;;4988405;28;20987;-66
2023/06/20 08:33:23;;;;;;;2.13;2.03;;;28.80;99.90;;;;;;4988960;28;20469;-66
2023/06/20 08:35:51;;;;;;;2.57;2.37;;;28.60;99.30;;;;;;4987979;28;20462;-67
2023/06/20 08:38:18;;;;;;;2.50;2.50;;;28.50;99.30;;;;;;4977433;28;20554;-70
2023/06/20 08:40:45;;;;;;;3.23;3.03;;;28.50;99.70;;;;;;4984041;28;20479;-71
2023/06/20 08:43:15;;;;;;;2.47;2.37;;;28.60;99.90;;;;;;4986752;28;20525;-66
2023/06/20 08:45:42;;;;;;;2.00;2.00;;;28.90;99.90;;;;;;4988018;28;20495;-66
2023/06/20 08:48:09;;;;;;;2.80;2.70;;;28.80;99.90;;;;;;4985759;28;20470;-66
2023/06/20 08:50:37;;;;;;;2.47;2.37;;;28.50;99.90;;;;;;4989738;28;20505;-67
2023/06/20 08:53:09;;;;;;;2.47;2.37;;;28.20;99.90;;;;;;4987001;28;20584;-68
2023/06/20 08:55:37;;;;;;;2.57;2.47;;;28.10;99.90;;;;;;4987958;28;20836;-67
2023/06/20 08:58:07;;;;;;;3.50;3.40;;;27.80;99.90;;;;;;4983180;28;20475;-66
2023/06/20 09:00:34;;;;;;;3.23;2.97;;;27.70;99.90;;;;;;4986439;28;20496;-67
2023/06/20 09:03:01;;;;;;;3.30;3.20;;;27.60;99.90;;;;;;4986568;28;20465;-67
2023/06/20 09:05:32;;;;;;;3.00;2.80;;;27.50;99.90;;;;;;4990293;28;20496;-67
2023/06/20 09:07:58;;;;;;;2.97;2.87;;;27.30;99.90;;;;;;4989538;28;20528;-71
2023/06/20 09:10:26;;;;;;;3.63;3.43;;;27.30;99.90;;;;;;4987874;28;20523;-71
2023/06/20 09:12:56;;;;;;;2.80;2.60;;;27.20;99.90;;;;;;4984267;28;20470;-67
2023/06/20 09:15:25;;;;;;;2.67;2.60;;;27.00;99.90;;;;;;4983902;28;20975;-69
2023/06/20 09:17:52;;;;;;;3.07;2.87;;;26.80;99.90;;;;;;4984729;28;20468;-67
2023/06/20 09:20:20;;;;;;;3.13;3.03;;;26.80;99.90;;;;;;4988861;28;20473;-66
2023/06/20 09:22:46;;;;;;;3.20;3.10;;;26.90;99.90;;;;;;4989620;28;20474;-68
2023/06/20 09:25:19;;;;;;;2.70;2.60;;;26.90;99.90;;;;;;4991338;28;20493;-68
2023/06/20 09:27:47;;;;;;;3.50;3.20;;;26.70;99.90;;;;;;4988586;28;20474;-68
2023/06/20 09:30:14;;;;;;;3.50;3.30;;;26.60;99.90;;;;;;4987700;28;20489;-69
2023/06/20 09:32:42;;;;;;;6.77;3.40;;;26.60;99.90;;;;;;5141640;23;20509;-64
2023/06/20 09:35:10;;;;;;;3.43;3.23;;;26.50;99.90;;;;;;4985806;28;20466;-64
2023/06/20 09:37:40;;;;;;;4.83;3.60;;;26.60;99.90;;;;;;4986546;28;20475;-64
2023/06/20 09:51:21;;;;;;;3.97;3.60;;;26.60;99.90;;;;;;5269385;23;20529;-69
2023/06/20 10:05:16;;;;;;;4.30;3.90;;;26.30;99.90;;;;;;5080077;27;20567;-67
2023/06/20 10:07:44;;;;;;;3.30;3.20;;;27.40;99.90;;;;;;5047131;28;20835;-67
2023/06/20 10:10:11;;;;;;;3.90;3.60;;;27.50;99.90;;;;;;5053614;28;20967;-68
2023/06/20 10:12:39;;;;;;;4.60;4.20;;;27.50;99.90;;;;;;5043398;28;20661;-68
2023/06/20 10:15:08;;;;;;;6.77;6.17;;;27.50;99.90;;;;;;5044017;28;20569;-67
2023/06/20 10:17:38;;;;;;;4.67;4.27;;;27.50;99.90;;;;;;5044882;28;20471;-68
2023/06/20 10:20:07;;;;;;;4.07;3.77;;;27.40;99.90;;;;;;5046376;28;20849;-63
2023/06/20 10:22:37;;;;;;;4.40;4.03;;;27.50;99.90;;;;;;5047435;28;20955;-62
2023/06/20 10:25:11;;;;;;;3.77;3.53;;;27.60;99.90;;;;;;5033490;28;20499;-63
2023/06/20 10:27:39;;;;;;;4.40;4.10;;;27.70;99.90;;;;;;5039087;28;20848;-62
2023/06/20 10:30:07;;;;;;;3.30;3.10;;;27.70;99.90;;;;;;5042549;28;20509;-60
2023/06/20 10:32:34;;;;;;;3.30;3.20;;;27.50;99.90;;;;;;5031802;28;20495;-63
2023/06/20 10:35:07;;;;;;;4.10;3.90;;;27.40;99.90;;;;;;5042741;28;20917;-62
2023/06/20 10:37:39;;;;;;;3.33;3.20;;;27.40;99.90;;;;;;5044090;28;20506;-62
2023/06/20 10:40:09;;;;;;;5.43;4.27;;;27.20;99.90;;;;;;5021568;28;20977;-64
2023/06/20 10:42:41;;;;;;;4.43;4.13;;;27.30;99.90;;;;;;5041080;28;20478;-60
2023/06/20 10:45:24;;;;;;;4.17;3.97;;;27.40;99.90;;;;;;5044529;28;20484;-61
2023/06/20 10:47:52;;;;;;;5.47;4.30;;;27.60;99.90;;;;;;5031417;28;20494;-61
2023/06/20 10:50:19;;;;;;;4.23;3.93;;;27.80;99.90;;;;;;5039064;28;20980;-63
2023/06/20 10:52:47;;;;;;;3.63;3.43;;;27.90;99.90;;;;;;5042195;28;20472;-63
2023/06/20 10:55:15;;;;;;;4.17;3.77;;;28.10;99.90;;;;;;5041647;28;20518;-63
2023/06/20 10:57:46;;;;;;;3.73;3.53;;;28.30;99.90;;;;;;5041678;28;20479;-67
2023/06/20 11:00:17;;;;;;;3.80;3.60;;;28.70;99.90;;;;;;5044223;28;20500;-66
2023/06/20 11:02:44;;;;;;;4.47;4.20;;;28.70;99.90;;;;;;5031069;28;20552;-62
2023/06/20 11:05:11;;;;;;;3.83;3.63;;;28.50;99.90;;;;;;5042131;28;20488;-67
2023/06/20 11:08:01;;;;;;;4.13;3.93;;;28.60;99.90;;;;;;5020104;28;20476;-70
2023/06/20 11:10:30;;;;;;;4.30;4.10;;;28.70;99.90;;;;;;5016871;28;20461;-67
2023/06/20 11:12:57;;;;;;;3.83;3.60;;;28.80;99.90;;;;;;5028674;28;20492;-66
2023/06/20 11:15:26;;;;;;;5.20;4.90;;;28.80;99.90;;;;;;5018618;28;20494;-67
2023/06/20 11:17:53;;;;;;;3.97;3.83;;;28.70;99.90;;;;;;5023789;28;20465;-68
2023/06/20 11:20:23;;;;;;;4.37;3.97;;;28.60;99.90;;;;;;5030811;28;20551;-67
2023/06/20 11:22:51;;;;;;;4.43;4.23;;;28.60;99.90;;;;;;5029920;28;20469;-68
2023/06/20 11:25:28;;;;;;;4.23;3.83;;;28.50;99.90;;;;;;5021912;28;20488;-67
2023/06/20 11:27:56;;;;;;;3.70;3.60;;;28.40;99.90;;;;;;5024357;28;20476;-68
2023/06/20 11:30:27;;;;;;;5.50;5.10;;;28.40;99.90;;;;;;5029330;28;20497;-67
2023/06/20 11:33:08;;;;;;;3.90;3.73;;;28.30;99.90;;;;;;5029103;28;20484;-65
2023/06/20 11:35:51;;;;;;;4.80;4.40;;;28.10;99.90;;;;;;5027416;28;20661;-65
2023/06/20 11:38:20;;;;;;;4.63;4.33;;;28.00;99.90;;;;;;5026039;28;21006;-66
2023/06/20 11:41:01;;;;;;;4.00;3.90;;;27.90;99.90;;;;;;5027015;28;20945;-66
2023/06/20 11:43:29;;;;;;;4.47;4.07;;;27.90;99.90;;;;;;5022385;28;20480;-66
2023/06/20 11:46:00;;;;;;;4.57;4.27;;;28.10;99.90;;;;;;5023434;28;20568;-66
2023/06/20 11:48:28;;;;;;;4.70;4.00;;;28.20;99.90;;;;;;5030801;28;20520;-66
2023/06/20 11:50:57;;;;;;;4.70;4.40;;;28.00;99.90;;;;;;5022711;28;20542;-66
2023/06/20 11:53:26;;;;;;;3.80;3.60;;;28.00;99.90;;;;;;5029999;28;21079;-66
2023/06/20 11:55:55;;;;;;;3.50;3.30;;;28.00;99.90;;;;;;5022377;28;20500;-66
2023/06/20 11:58:22;;;;;;;3.40;3.30;;;28.10;99.90;;;;;;5028188;28;20468;-66
2023/06/20 12:01:01;;;;;;;3.40;3.20;;;28.00;99.90;;;;;;5024806;28;20472;-66
2023/06/20 12:03:27;;;;;;;3.80;3.60;;;28.10;99.90;;;;;;5026668;28;20774;-65
2023/06/20 12:05:56;;;;;;;3.70;3.60;;;28.30;99.90;;;;;;5025081;28;20587;-66
2023/06/20 12:08:24;;;;;;;3.60;3.50;;;28.40;99.90;;;;;;5025699;28;20567;-65
2023/06/20 12:11:00;;;;;;;4.37;4.07;;;28.40;99.90;;;;;;5019903;28;20561;-66
2023/06/20 12:13:27;;;;;;;4.07;3.80;;;28.40;99.90;;;;;;5021179;28;20487;-65
2023/06/20 12:15:54;;;;;;;4.03;3.83;;;28.40;99.90;;;;;;5026862;28;20488;-66
2023/06/20 12:18:20;;;;;;;3.57;3.37;;;28.40;99.90;;;;;;5027048;28;20913;-65
2023/06/20 12:20:47;;;;;;;4.30;4.10;;;28.60;99.90;;;;;;5028867;28;20572;-65
2023/06/20 12:23:14;;;;;;;3.17;2.97;;;28.60;99.90;;;;;;5022839;28;20472;-65
2023/06/20 12:25:41;;;;;;;3.53;3.33;;;28.70;99.90;;;;;;5030003;28;20497;-65
2023/06/20 12:28:09;;;;;;;2.67;2.60;;;28.80;99.90;;;;;;5029049;28;20837;-65
2023/06/20 12:30:36;;;;;;;3.50;3.20;;;28.90;99.90;;;;;;5030594;28;20488;-65
2023/06/20 12:33:02;;;;;;;3.90;3.70;;;29.00;99.90;;;;;;5028811;28;20473;-64
2023/06/20 12:35:30;;;;;;;3.87;3.77;;;29.10;99.90;;;;;;5030243;28;20495;-67
2023/06/20 12:37:56;;;;;;;5.10;4.73;;;28.90;99.90;;;;;;5027620;28;20838;-67
2023/06/20 12:40:24;;;;;;;3.90;3.70;;;28.90;99.90;;;;;;5028260;28;20494;-65
2023/06/20 12:42:51;;;;;;;3.53;3.43;;;28.90;99.90;;;;;;5018512;28;20551;-66
2023/06/20 12:45:19;;;;;;;3.70;3.60;;;28.90;99.90;;;;;;5029976;28;20484;-65
2023/06/20 12:47:46;;;;;;;4.13;3.93;;;29.00;99.90;;;;;;5018525;28;20473;-65
2023/06/20 12:50:12;;;;;;;3.57;3.47;;;29.10;99.90;;;;;;5027549;28;20527;-64
2023/06/20 12:52:39;;;;;;;3.80;3.60;;;29.10;99.90;;;;;;5018486;28;20477;-66
2023/06/20 12:55:07;;;;;;;3.53;3.33;;;29.00;99.90;;;;;;5029238;28;20519;-66
2023/06/20 12:57:34;;;;;;;3.37;3.17;;;28.80;99.90;;;;;;5022091;28;20461;-66
2023/06/20 13:00:00;;;;;;;2.80;2.80;;;28.80;99.90;;;;;;5023279;28;20549;-66
2023/06/20 13:02:28;;;;;;;3.13;3.03;;;28.80;99.90;;;;;;5025007;28;20467;-65
2023/06/20 13:04:55;;;;;;;3.60;3.40;;;28.80;99.10;;;;;;5027696;28;20535;-65
2023/06/20 13:07:24;;;;;;;3.43;3.13;;;28.70;99.70;;;;;;5024886;28;20546;-66
2023/06/20 13:09:51;;;;;;;2.70;2.70;;;28.60;99.60;;;;;;5027701;28;20471;-66
2023/06/20 13:12:19;;;;;;;2.97;2.87;;;28.60;99.90;;;;;;5021682;28;20470;-66
2023/06/20 13:14:47;;;;;;;3.57;3.37;;;28.50;99.80;;;;;;5014696;28;20508;-66
2023/06/20 13:17:15;;;;;;;2.87;2.77;;;28.50;99.90;;;;;;5025514;28;20469;-66
2023/06/20 13:19:45;;;;;;;3.30;3.20;;;28.50;99.90;;;;;;5028104;28;21037;-67
2023/06/20 13:22:13;;;;;;;2.40;2.30;;;28.50;99.90;;;;;;5027987;28;20587;-66
2023/06/20 13:24:42;;;;;;;3.80;3.57;;;28.60;99.90;;;;;;5030088;28;20613;-66
2023/06/20 13:27:10;;;;;;;3.10;3.10;;;28.80;99.60;;;;;;5021475;28;20895;-66
2023/06/20 13:29:36;;;;;;;3.40;2.40;;;28.90;99.90;;;;;;5030222;28;20515;-66
2023/06/20 13:32:03;;;;;;;2.47;2.37;;;28.80;98.90;;;;;;5025058;28;20842;-66
2023/06/20 13:34:31;;;;;;;3.47;3.27;;;28.80;99.10;;;;;;5029662;28;20877;-66
2023/06/20 13:36:59;;;;;;;2.50;2.40;;;28.70;99.40;;;;;;5025888;28;20477;-66
2023/06/20 13:39:28;;;;;;;2.93;2.83;;;28.90;99.70;;;;;;5026929;28;20469;-66
2023/06/20 13:41:55;;;;;;;3.50;3.40;;;28.90;99.30;;;;;;5026761;28;20572;-66
2023/06/20 13:44:22;;;;;;;2.90;2.80;;;29.10;99.60;;;;;;5029907;28;20465;-66
2023/06/20 13:46:50;;;;;;;3.10;3.00;;;29.10;99.60;;;;;;5021366;28;20469;-66
2023/06/20 13:49:17;;;;;;;4.00;3.80;;;29.10;99.50;;;;;;5022368;28;20480;-66
2023/06/20 13:51:44;;;;;;;3.33;3.23;;;29.00;99.80;;;;;;5020678;28;20479;-66
2023/06/20 13:54:13;;;;;;;3.10;3.00;;;28.90;99.70;;;;;;5027130;28;20484;-66
2023/06/20 13:56:40;;;;;;;3.07;2.97;;;28.80;99.90;;;;;;5021383;28;20488;-66
2023/06/20 13:59:07;;;;;;;2.73;2.63;;;28.90;99.90;;;;;;5020427;28;20464;-66
2023/06/20 14:01:35;;;;;;;3.33;3.20;;;29.00;99.90;;;;;;5027629;28;20461;-66
2023/06/20 14:04:02;;;;;;;4.90;3.57;;;29.10;99.90;;;;;;5027681;28;20469;-66
2023/06/20 14:06:29;;;;;;;3.53;3.33;;;29.00;99.90;;;;;;5027344;28;20572;-66
2023/06/20 14:08:56;;;;;;;3.40;3.20;;;28.90;99.90;;;;;;5024021;28;20472;-66
2023/06/20 14:11:24;;;;;;;4.23;3.70;;;29.00;99.90;;;;;;5020818;28;20472;-66
2023/06/20 14:13:50;;;;;;;3.20;3.10;;;29.10;99.90;;;;;;5027839;28;20839;-67
2023/06/20 14:16:18;;;;;;;4.10;3.90;;;29.10;99.90;;;;;;5024028;28;20489;-66
2023/06/20 14:18:45;;;;;;;3.47;3.30;;;29.00;99.90;;;;;;5024000;28;20472;-66
2023/06/20 14:21:12;;;;;;;3.80;3.60;;;28.80;99.90;;;;;;5017090;28;20468;-66
2023/06/20 14:23:39;;;;;;;3.67;3.57;;;28.70;99.90;;;;;;5028519;28;20471;-66
2023/06/20 14:26:06;;;;;;;3.00;2.87;;;28.80;99.90;;;;;;5021051;28;20484;-66
2023/06/20 14:28:34;;;;;;;4.37;4.07;;;29.00;99.90;;;;;;5026686;28;20574;-66
2023/06/20 14:31:01;;;;;;;2.83;2.73;;;29.00;99.90;;;;;;5022803;28;20487;-66
2023/06/20 14:33:27;;;;;;;3.10;3.00;;;28.90;99.90;;;;;;5027873;28;20866;-66
2023/06/20 14:35:54;;;;;;;3.63;3.43;;;28.90;99.90;;;;;;5026875;28;20496;-66
2023/06/20 14:38:21;;;;;;;3.13;3.03;;;29.10;99.90;;;;;;5018140;28;20476;-66
2023/06/20 14:40:48;;;;;;;3.70;3.50;;;29.00;99.90;;;;;;5024869;28;20797;-67
2023/06/20 14:43:14;;;;;;;3.10;3.00;;;28.90;99.90;;;;;;5028745;28;20472;-66
2023/06/20 14:45:42;;;;;;;4.10;3.90;;;29.00;99.90;;;;;;5042388;28;21028;-66
2023/06/20 14:48:09;;;;;;;3.50;3.40;;;29.10;99.90;;;;;;5024759;28;20556;-66
2023/06/20 14:50:36;;;;;;;4.07;3.87;;;29.00;99.90;;;;;;5021850;28;21034;-66
2023/06/20 14:53:03;;;;;;;3.73;3.63;;;29.00;99.90;;;;;;5030442;28;20471;-66
2023/06/20 14:55:29;;;;;;;2.93;2.83;;;29.00;99.90;;;;;;5021288;28;20534;-66
2023/06/20 14:57:56;;;;;;;3.77;3.60;;;28.90;99.90;;;;;;5028366;28;20464;-66
2023/06/20 15:00:23;;;;;;;3.93;3.63;;;28.90;99.90;;;;;;5025519;28;20940;-66
2023/06/20 15:02:51;;;;;;;3.00;2.90;;;28.70;99.90;;;;;;5027589;28;21010;-66
2023/06/20 15:05:18;;;;;;;3.17;3.07;;;28.50;99.90;;;;;;5018897;28;20588;-66
2023/06/20 15:07:44;;;;;;;3.40;3.27;;;28.50;99.90;;;;;;5028486;28;20468;-66
2023/06/20 15:10:12;;;;;;;3.63;3.43;;;28.60;99.90;;;;;;5027017;28;20807;-66
2023/06/20 15:12:38;;;;;;;4.00;3.80;;;28.80;99.90;;;;;;5029023;28;20471;-67
2023/06/20 15:15:06;;;;;;;2.80;2.60;;;29.00;99.90;;;;;;5024635;28;20491;-66
2023/06/20 15:17:33;;;;;;;4.27;3.50;;;29.20;99.90;;;;;;5029910;28;20474;-66
2023/06/20 15:20:01;;;;;;;3.87;3.67;;;29.30;99.90;;;;;;5031993;28;20547;-66
2023/06/20 15:22:27;;;;;;;4.70;4.43;;;29.20;99.90;;;;;;5031820;28;20471;-66
2023/06/20 15:24:54;;;;;;;3.43;3.33;;;29.10;99.90;;;;;;5029928;28;20588;-66
2023/06/20 15:27:21;;;;;;;2.97;2.83;;;28.80;99.90;;;;;;5030529;28;20472;-66
2023/06/20 15:29:47;;;;;;;2.80;2.77;;;28.60;99.90;;;;;;5029721;28;20464;-66
2023/06/20 15:32:14;;;;;;;4.20;4.00;;;28.50;99.90;;;;;;5023116;28;20471;-66
2023/06/20 15:34:41;;;;;;;4.30;4.10;;;28.50;99.90;;;;;;5033891;28;20497;-66
2023/06/20 15:37:09;;;;;;;3.30;3.10;;;28.40;99.90;;;;;;5034645;28;20469;-66
2023/06/20 15:39:36;;;;;;;3.70;3.47;;;28.60;99.90;;;;;;5026745;28;20944;-66
2023/06/20 15:42:04;;;;;;;3.30;3.17;;;28.90;99.90;;;;;;5022861;28;20482;-65
2023/06/20 15:44:31;;;;;;;3.63;3.43;;;29.10;99.90;;;;;;5029005;28;20830;-67
2023/06/20 15:47:01;;;;;;;4.17;3.83;;;29.30;99.90;;;;;;5025698;28;20468;-66
2023/06/20 15:49:29;;;;;;;3.77;3.57;;;29.30;99.90;;;;;;5025655;28;20546;-65
2023/06/20 15:51:56;;;;;;;4.03;3.83;;;29.40;99.90;;;;;;5021003;28;21335;-66
2023/06/20 15:54:24;;;;;;;3.70;3.50;;;29.30;99.90;;;;;;5023691;28;20479;-65
2023/06/20 15:56:51;;;;;;;3.40;3.17;;;29.20;99.90;;;;;;5023642;28;20471;-65
2023/06/20 15:59:17;;;;;;;4.00;3.80;;;29.20;99.90;;;;;;5027523;28;20978;-65
2023/06/20 16:01:44;;;;;;;3.90;3.80;;;29.20;99.90;;;;;;5016972;28;20469;-65
2023/06/20 16:04:11;;;;;;;4.33;4.10;;;29.10;99.90;;;;;;5024458;28;20480;-65
2023/06/20 16:06:38;;;;;;;3.60;3.37;;;29.00;99.90;;;;;;5027692;28;20504;-65
2023/06/20 16:09:04;;;;;;;4.20;4.07;;;29.00;99.90;;;;;;5028078;28;20477;-65
2023/06/20 16:11:32;;;;;;;3.27;3.00;;;28.90;99.90;;;;;;5029223;28;20473;-65
2023/06/20 16:13:59;;;;;;;3.87;3.67;;;28.90;99.90;;;;;;5016940;28;20574;-65
2023/06/20 16:16:26;;;;;;;4.10;3.90;;;28.90;99.90;;;;;;5026318;28;20490;-65
2023/06/20 16:18:53;;;;;;;4.50;4.30;;;28.90;99.90;;;;;;5028253;28;20469;-65
2023/06/20 16:21:20;;;;;;;3.70;3.50;;;28.90;99.90;;;;;;5025425;28;20494;-65
2023/06/20 16:23:48;;;;;;;3.60;3.40;;;28.90;99.90;;;;;;5026783;28;20819;-66
2023/06/20 16:26:15;;;;;;;4.30;4.10;;;29.00;99.90;;;;;;5023865;28;20977;-67
2023/06/20 16:28:43;;;;;;;3.17;2.97;;;29.10;99.90;;;;;;5032976;28;20470;-64
2023/06/20 16:31:10;;;;;;;3.17;3.07;;;29.10;99.90;;;;;;5025511;28;20948;-65
2023/06/20 16:33:36;;;;;;;3.97;3.77;;;29.00;99.90;;;;;;5026112;28;20479;-65
2023/06/20 16:36:03;;;;;;;3.50;3.30;;;28.60;99.90;;;;;;5021205;28;20503;-65
2023/06/20 16:38:30;;;;;;;3.47;3.37;;;28.40;99.90;;;;;;5029270;28;20470;-65
2023/06/20 16:40:56;;;;;;;3.70;3.50;;;28.20;99.90;;;;;;5024029;28;20467;-65
2023/06/20 16:43:23;;;;;;;5.00;4.70;;;28.20;99.90;;;;;;5028943;28;20856;-65
2023/06/20 16:45:51;;;;;;;4.00;3.80;;;28.20;99.90;;;;;;5033889;28;20489;-64
2023/06/20 16:48:18;;;;;;;3.17;3.00;;;28.30;99.90;;;;;;5027841;28;20472;-64
2023/06/20 16:50:45;;;;;;;3.67;3.47;;;28.40;99.90;;;;;;5024156;28;20469;-64
2023/06/20 16:53:12;;;;;;;4.03;3.87;;;28.30;99.90;;;;;;5025796;28;20468;-67
2023/06/20 16:55:38;;;;;;;3.93;3.83;;;28.20;99.90;;;;;;5021288;28;21311;-64
2023/06/20 16:58:06;;;;;;;3.93;3.70;;;28.10;99.90;;;;;;5028762;28;20468;-65
2023/06/20 17:00:32;;;;;;;3.63;3.33;;;28.10;99.90;;;;;;5027292;28;20471;-65
2023/06/20 17:03:01;;;;;;;3.33;3.13;;;28.00;99.90;;;;;;5020984;28;20496;-66
2023/06/20 17:05:28;;;;;;;3.50;3.30;;;28.00;99.90;;;;;;5027108;28;20487;-65
2023/06/20 17:07:55;;;;;;;5.20;4.90;;;28.00;99.90;;;;;;5028441;28;20471;-67
2023/06/20 17:10:21;;;;;;;3.83;3.73;;;27.90;99.90;;;;;;5027136;28;20572;-66
2023/06/20 17:12:48;;;;;;;3.60;3.50;;;28.10;99.90;;;;;;5026040;28;20471;-66